createdAt,value
2019-05-09T00:00:06.120Z,9
2019-05-09T00:01:06.161Z,9.2
2019-05-09T00:02:06.232Z,9.2
2019-05-09T00:03:06.295Z,9.1
2019-05-09T00:04:06.379Z,9.1
2019-05-09T00:05:06.395Z,8.9
2019-05-09T00:06:06.450Z,9
2019-05-09T00:07:06.505Z,9.1
2019-05-09T00:08:06.498Z,9.1
2019-05-09T00:09:06.556Z,9.2
2019-05-09T00:10:06.628Z,9.3
2019-05-09T00:11:06.657Z,9.4
2019-05-09T00:12:06.673Z,9.4
2019-05-09T00:13:06.762Z,9.3
2019-05-09T00:14:06.823Z,9.2
2019-05-09T00:15:06.808Z,9.1
2019-05-09T00:16:06.862Z,9.1
2019-05-09T00:17:06.923Z,9.1
2019-05-09T00:18:07.009Z,9.1
2019-05-09T00:19:07.040Z,9.1
2019-05-09T00:20:07.248Z,9.1
2019-05-09T00:21:07.110Z,9.1
2019-05-09T00:22:07.114Z,9
2019-05-09T00:23:07.138Z,8.9
2019-05-09T00:24:07.143Z,9.1
2019-05-09T00:25:07.133Z,9
2019-05-09T00:26:07.206Z,8.3
2019-05-09T00:27:07.239Z,8.2
2019-05-09T00:28:07.300Z,8.1
2019-05-09T00:29:07.282Z,7.7
2019-05-09T00:30:07.361Z,7.4
2019-05-09T00:31:07.360Z,7.4
2019-05-09T00:32:07.418Z,7.6
2019-05-09T00:33:10.093Z,7.7
2019-05-09T00:34:07.501Z,7.7
2019-05-09T00:35:07.538Z,7.8
2019-05-09T00:36:07.573Z,7.9
2019-05-09T00:37:07.594Z,7.8
2019-05-09T00:38:07.637Z,8
2019-05-09T00:39:07.678Z,7.8
2019-05-09T00:40:07.709Z,7.9
2019-05-09T00:41:07.764Z,7.8
2019-05-09T00:42:07.819Z,8
2019-05-09T00:43:07.840Z,7.8
2019-05-09T00:44:07.881Z,7.7
2019-05-09T00:45:07.912Z,7.5
2019-05-09T00:46:08.031Z,7.5
2019-05-09T00:47:08.002Z,7.8
2019-05-09T00:48:08.055Z,8
2019-05-09T00:49:08.048Z,7.2
2019-05-09T00:50:08.047Z,7
2019-05-09T00:51:08.066Z,7.1
2019-05-09T00:52:08.103Z,7.5
2019-05-09T00:53:08.157Z,7.4
2019-05-09T00:54:08.155Z,7.2
2019-05-09T00:55:08.192Z,7.4
2019-05-09T00:56:08.234Z,7
2019-05-09T00:57:08.254Z,6.9
2019-05-09T00:58:08.297Z,7.3
2019-05-09T00:59:08.300Z,7
2019-05-09T01:00:08.314Z,6.9
2019-05-09T01:01:08.334Z,6.8
2019-05-09T01:02:08.360Z,6.9
2019-05-09T01:03:08.379Z,7.4
2019-05-09T01:04:08.432Z,7.4
2019-05-09T01:05:08.446Z,7.1
2019-05-09T01:06:08.447Z,7.2
2019-05-09T01:07:08.467Z,7.5
2019-05-09T01:08:08.559Z,7.5
2019-05-09T01:09:08.593Z,7.4
2019-05-09T01:10:08.610Z,7.4
2019-05-09T01:11:12.263Z,7.2
2019-05-09T01:12:08.619Z,7.6
2019-05-09T01:13:08.634Z,7.7
2019-05-09T01:14:08.706Z,7.6
2019-05-09T01:15:08.676Z,7.6
2019-05-09T01:16:08.711Z,7.3
2019-05-09T01:17:08.716Z,7.6
2019-05-09T01:18:08.743Z,8
2019-05-09T01:19:08.773Z,8.2
2019-05-09T01:20:08.789Z,7.6
2019-05-09T01:21:08.803Z,7.7
2019-05-09T01:22:08.823Z,8.1
2019-05-09T01:23:08.830Z,8.2
2019-05-09T01:24:08.852Z,7.9
2019-05-09T01:25:08.848Z,8.1
2019-05-09T01:26:08.862Z,7.9
2019-05-09T01:27:08.882Z,8
2019-05-09T01:28:08.873Z,8.5
2019-05-09T01:29:08.902Z,8.5
2019-05-09T01:30:08.920Z,8.7
2019-05-09T01:31:08.918Z,8.8
2019-05-09T01:32:08.939Z,8.9
2019-05-09T01:33:08.916Z,9
2019-05-09T01:34:08.948Z,9.1
2019-05-09T01:35:08.935Z,9
2019-05-09T01:36:09.031Z,8.9
2019-05-09T01:37:08.955Z,8.9
2019-05-09T01:38:08.958Z,9
2019-05-09T01:39:08.948Z,8.9
2019-05-09T01:40:08.949Z,9.1
2019-05-09T01:41:22.749Z,9.1
2019-05-09T01:42:09.005Z,9.2
2019-05-09T01:43:09.097Z,9.2
2019-05-09T01:44:09.167Z,9.2
2019-05-09T01:45:09.153Z,9.2
2019-05-09T01:46:09.221Z,9.2
2019-05-09T01:47:09.257Z,9.2
2019-05-09T01:48:09.327Z,9.2
2019-05-09T01:49:09.398Z,9.2
2019-05-09T01:50:09.446Z,9.3
2019-05-09T01:51:09.424Z,9.4
2019-05-09T01:52:09.543Z,9.3
2019-05-09T01:53:09.561Z,9.2
2019-05-09T01:54:09.585Z,9.1
2019-05-09T01:55:09.576Z,8.9
2019-05-09T01:56:09.674Z,9
2019-05-09T01:57:09.651Z,9.1
2019-05-09T01:58:09.845Z,9.1
2019-05-09T01:59:09.695Z,9.2
2019-05-09T02:00:09.860Z,9.2
2019-05-09T02:01:09.804Z,9.2
2019-05-09T02:02:09.930Z,9
2019-05-09T02:03:09.889Z,8.9
2019-05-09T02:04:09.948Z,9
2019-05-09T02:05:10.009Z,9.2
2019-05-09T02:06:10.081Z,9.3
2019-05-09T02:07:10.103Z,9
2019-05-09T02:08:10.184Z,8.9
2019-05-09T02:09:10.232Z,9
2019-05-09T02:10:10.287Z,8.7
2019-05-09T02:11:10.280Z,9
2019-05-09T02:12:10.284Z,9
2019-05-09T02:13:10.344Z,9
2019-05-09T02:14:10.367Z,9
2019-05-09T02:15:10.428Z,9
2019-05-09T02:16:10.481Z,8.9
2019-05-09T02:17:10.489Z,8.9
2019-05-09T02:18:10.492Z,9
2019-05-09T02:19:10.513Z,9
2019-05-09T02:20:10.536Z,9
2019-05-09T02:21:12.149Z,8.9
2019-05-09T02:22:12.887Z,8.9
2019-05-09T02:23:10.688Z,9.1
2019-05-09T02:24:10.742Z,9.1
2019-05-09T02:25:10.797Z,9.1
2019-05-09T02:26:13.260Z,9.1
2019-05-09T02:27:13.053Z,9.1
2019-05-09T02:28:10.915Z,9.3
2019-05-09T02:29:10.973Z,9.3
2019-05-09T02:30:14.655Z,9.2
2019-05-09T02:31:11.049Z,9.1
2019-05-09T02:32:11.067Z,9.5
2019-05-09T02:33:14.252Z,9.5
2019-05-09T02:34:14.510Z,9.4
2019-05-09T02:35:11.213Z,9.3
2019-05-09T02:36:11.257Z,9.3
2019-05-09T02:37:11.301Z,9
2019-05-09T02:38:11.349Z,9.1
2019-05-09T02:39:11.495Z,9.4
2019-05-09T02:40:11.549Z,9.5
2019-05-09T02:41:11.451Z,9.5
2019-05-09T02:42:14.118Z,9.4
2019-05-09T02:43:11.532Z,9.4
2019-05-09T02:44:11.566Z,9.7
2019-05-09T02:45:11.570Z,9.8
2019-05-09T02:46:11.643Z,9.7
2019-05-09T02:47:11.661Z,9.8
2019-05-09T02:48:11.701Z,9.8
2019-05-09T02:49:11.772Z,9.7
2019-05-09T02:50:11.806Z,9.7
2019-05-09T02:51:14.326Z,9.7
2019-05-09T02:52:11.870Z,9.8
2019-05-09T02:53:11.901Z,9.7
2019-05-09T02:54:11.939Z,9.8
2019-05-09T02:55:12.085Z,9.8
2019-05-09T02:56:12.033Z,9.8
2019-05-09T02:57:12.047Z,9.9
2019-05-09T02:58:12.115Z,9.8
2019-05-09T02:59:12.119Z,9.9
2019-05-09T03:00:12.131Z,10
2019-05-09T03:01:12.208Z,10.1
2019-05-09T03:02:12.209Z,10.1
2019-05-09T03:03:12.235Z,10.1
2019-05-09T03:04:12.272Z,10.1
2019-05-09T03:05:12.319Z,10.1
2019-05-09T03:06:12.333Z,10
2019-05-09T03:07:12.337Z,10.1
2019-05-09T03:08:12.382Z,10.1
2019-05-09T03:09:12.428Z,10.2
2019-05-09T03:10:12.379Z,10.2
2019-05-09T03:11:12.431Z,10.2
2019-05-09T03:12:25.888Z,10.2
2019-05-09T03:13:12.500Z,10.2
2019-05-09T03:14:12.514Z,10.2
2019-05-09T03:15:12.516Z,10.2
2019-05-09T03:16:12.560Z,10.1
2019-05-09T03:17:12.576Z,10.1
2019-05-09T03:18:12.618Z,10.1
2019-05-09T03:19:12.604Z,10.1
2019-05-09T03:20:12.609Z,10
2019-05-09T03:21:12.623Z,10.1
2019-05-09T03:22:12.598Z,10.1
2019-05-09T03:23:12.659Z,10.2
2019-05-09T03:24:12.650Z,10.1
2019-05-09T03:25:12.658Z,10.1
2019-05-09T03:26:12.669Z,10.1
2019-05-09T03:27:12.667Z,10.1
2019-05-09T03:28:12.677Z,10.1
2019-05-09T03:29:12.728Z,10.1
2019-05-09T03:30:12.821Z,10.1
2019-05-09T03:31:12.740Z,10.1
2019-05-09T03:32:12.734Z,10.1
2019-05-09T03:33:15.011Z,10.1
2019-05-09T03:34:12.768Z,10.1
2019-05-09T03:35:12.773Z,10.1
2019-05-09T03:36:12.764Z,10
2019-05-09T03:37:12.771Z,10
2019-05-09T03:38:12.781Z,10.1
2019-05-09T03:39:12.793Z,10.2
2019-05-09T03:40:12.776Z,10.2
2019-05-09T03:41:12.801Z,10.2
2019-05-09T03:42:12.775Z,10.1
2019-05-09T03:43:15.301Z,10.1
2019-05-09T03:44:12.813Z,10.1
2019-05-09T03:45:12.811Z,10.1
2019-05-09T03:46:12.826Z,10.1
2019-05-09T03:47:12.860Z,10.1
2019-05-09T03:48:12.896Z,10.1
2019-05-09T03:49:13.036Z,10.1
2019-05-09T03:50:13.030Z,10.1
2019-05-09T03:51:13.140Z,10.1
2019-05-09T03:52:13.149Z,10.2
2019-05-09T03:53:13.160Z,10.2
2019-05-09T03:54:13.232Z,10.2
2019-05-09T03:55:13.266Z,10.1
2019-05-09T03:56:13.358Z,10
2019-05-09T03:57:13.390Z,9.9
2019-05-09T03:58:13.459Z,9.9
2019-05-09T03:59:13.488Z,10
2019-05-09T04:00:13.511Z,10
2019-05-09T04:01:13.576Z,9.9
2019-05-09T04:02:13.646Z,9.8
2019-05-09T04:03:13.652Z,9.8
2019-05-09T04:04:13.715Z,9.9
2019-05-09T04:05:13.766Z,10
2019-05-09T04:06:13.804Z,9.9
2019-05-09T04:07:13.824Z,9.9
2019-05-09T04:08:13.805Z,9.9
2019-05-09T04:09:13.890Z,9.8
2019-05-09T04:10:14.010Z,9.9
2019-05-09T04:11:13.946Z,9.8
2019-05-09T04:12:13.947Z,9.8
2019-05-09T04:13:14.007Z,9.8
2019-05-09T04:14:14.046Z,9.8
2019-05-09T04:15:14.037Z,9.7
2019-05-09T04:16:14.068Z,9.6
2019-05-09T04:17:14.087Z,9.7
2019-05-09T04:18:14.096Z,9.6
2019-05-09T04:19:14.111Z,9.6
2019-05-09T04:20:14.156Z,9.6
2019-05-09T04:21:14.201Z,9.5
2019-05-09T04:22:14.244Z,9.5
2019-05-09T04:23:14.297Z,9.4
2019-05-09T04:24:14.326Z,9.3
2019-05-09T04:25:14.384Z,9.5
2019-05-09T04:26:14.444Z,9.6
2019-05-09T04:27:14.445Z,9.6
2019-05-09T04:28:14.498Z,9.5
2019-05-09T04:29:14.550Z,9.4
2019-05-09T04:30:14.604Z,9.3
2019-05-09T04:31:14.728Z,9.2
2019-05-09T04:32:14.705Z,9.1
2019-05-09T04:33:14.726Z,9.1
2019-05-09T04:34:14.780Z,9.1
2019-05-09T04:35:14.815Z,9.2
2019-05-09T04:36:14.860Z,9.1
2019-05-09T04:37:14.878Z,9.1
2019-05-09T04:38:14.898Z,9.1
2019-05-09T04:39:18.827Z,9.2
2019-05-09T04:40:17.567Z,9.1
2019-05-09T04:41:16.219Z,9.1
2019-05-09T04:42:15.071Z,9.1
2019-05-09T04:43:19.287Z,9.1
2019-05-09T04:44:19.001Z,9.1
2019-05-09T04:45:15.158Z,9.1
2019-05-09T04:46:18.494Z,9.1
2019-05-09T04:47:17.187Z,9.2
2019-05-09T04:48:18.427Z,9.1
2019-05-09T04:49:15.363Z,8.9
2019-05-09T04:50:20.892Z,9
2019-05-09T04:51:15.375Z,9
2019-05-09T04:52:15.425Z,9
2019-05-09T04:53:15.434Z,9
2019-05-09T04:54:17.492Z,9
2019-05-09T04:55:15.474Z,9.1
2019-05-09T04:56:17.512Z,9.2
2019-05-09T04:57:17.608Z,9.1
2019-05-09T04:58:15.550Z,9
2019-05-09T04:59:17.598Z,9
2019-05-09T05:00:15.575Z,8.9
2019-05-09T05:01:19.363Z,9
2019-05-09T05:02:15.666Z,9
2019-05-09T05:03:15.682Z,9
2019-05-09T05:04:17.822Z,9
2019-05-09T05:05:17.863Z,9.1
2019-05-09T05:06:18.657Z,9.2
2019-05-09T05:07:17.794Z,9.1
2019-05-09T05:08:17.926Z,9.1
2019-05-09T05:09:20.290Z,8.9
2019-05-09T05:10:15.830Z,9
2019-05-09T05:11:17.800Z,8.9
2019-05-09T05:12:15.853Z,8.7
2019-05-09T05:13:23.981Z,8.7
2019-05-09T05:14:17.576Z,8.9
2019-05-09T05:15:17.887Z,8.9
2019-05-09T05:16:18.194Z,8.7
2019-05-09T05:17:17.923Z,8.7
2019-05-09T05:18:17.342Z,8.8
2019-05-09T05:19:17.642Z,8.9
2019-05-09T05:20:18.299Z,8.9
2019-05-09T05:21:19.792Z,8.8
2019-05-09T05:22:18.097Z,8.3
2019-05-09T05:23:18.068Z,8.5
2019-05-09T05:24:18.239Z,8.7
2019-05-09T05:25:17.826Z,8.9
2019-05-09T05:26:17.747Z,8.7
2019-05-09T05:27:18.532Z,8.5
2019-05-09T05:28:17.639Z,8.9
2019-05-09T05:29:17.688Z,9.3
2019-05-09T05:30:17.935Z,9.5
2019-05-09T05:31:18.018Z,9.3
2019-05-09T05:32:17.757Z,8.4
2019-05-09T05:33:18.284Z,8.7
2019-05-09T05:34:18.043Z,9.1
2019-05-09T05:35:17.844Z,9
2019-05-09T05:36:18.063Z,8.4
2019-05-09T05:37:17.624Z,8.5
2019-05-09T05:38:17.582Z,8.4
2019-05-09T05:39:17.814Z,8.2
2019-05-09T05:40:17.767Z,8.5
2019-05-09T05:41:18.045Z,8.7
2019-05-09T05:42:17.581Z,9
2019-05-09T05:43:17.372Z,8.7
2019-05-09T05:44:17.738Z,7.5
2019-05-09T05:45:18.086Z,7.4
2019-05-09T05:46:18.162Z,7.6
2019-05-09T05:47:17.998Z,7.8
2019-05-09T05:48:17.475Z,8.1
2019-05-09T05:49:18.382Z,8.4
2019-05-09T05:50:17.614Z,7.9
2019-05-09T05:51:18.405Z,7.3
2019-05-09T05:52:18.461Z,7.1
2019-05-09T05:53:18.254Z,7.2
2019-05-09T05:54:18.123Z,7.5
2019-05-09T05:55:18.172Z,7.5
2019-05-09T05:56:17.555Z,7.3
2019-05-09T05:57:17.653Z,7.6
2019-05-09T05:58:17.956Z,8.1
2019-05-09T05:59:17.800Z,8.2
2019-05-09T06:00:18.025Z,8
2019-05-09T06:01:18.691Z,8.3
2019-05-09T06:02:17.716Z,8.1
2019-05-09T06:03:17.747Z,8.3
2019-05-09T06:04:18.514Z,8.5
2019-05-09T06:05:32.246Z,7.8
2019-05-09T06:06:17.551Z,7.3
2019-05-09T06:07:18.403Z,7.2
2019-05-09T06:08:17.512Z,7.8
2019-05-09T06:09:18.859Z,8.1
2019-05-09T06:10:18.586Z,8.5
2019-05-09T06:11:17.771Z,8.4
2019-05-09T06:12:18.476Z,8.6
2019-05-09T06:13:18.301Z,8.2
2019-05-09T06:14:18.377Z,7.2
2019-05-09T06:15:18.173Z,7.2
2019-05-09T06:16:18.283Z,7.7
2019-05-09T06:17:18.145Z,7.8
2019-05-09T06:18:18.334Z,7.7
2019-05-09T06:19:18.039Z,7.2
2019-05-09T06:20:17.936Z,7.4
2019-05-09T06:21:17.881Z,7.7
2019-05-09T06:22:18.379Z,7.5
2019-05-09T06:23:17.900Z,7.2
2019-05-09T06:24:17.991Z,7.6
2019-05-09T06:25:20.605Z,7.6
2019-05-09T06:26:18.800Z,7.3
2019-05-09T06:27:18.321Z,7.5
2019-05-09T06:28:18.276Z,7.3
2019-05-09T06:29:18.051Z,7.2
2019-05-09T06:30:18.033Z,7.8
2019-05-09T06:31:18.109Z,7
2019-05-09T06:32:18.777Z,7
2019-05-09T06:33:18.245Z,6.9
2019-05-09T06:34:18.859Z,7.4
2019-05-09T06:35:18.235Z,7.9
2019-05-09T06:36:18.911Z,8.2
2019-05-09T06:37:18.565Z,8.5
2019-05-09T06:38:18.812Z,7.7
2019-05-09T06:39:18.403Z,7.7
2019-05-09T06:40:21.196Z,7.9
2019-05-09T06:41:18.429Z,8.2
2019-05-09T06:42:18.671Z,7.9
2019-05-09T06:43:18.501Z,7.5
2019-05-09T06:44:20.622Z,7.9
2019-05-09T06:45:18.555Z,8
2019-05-09T06:46:18.593Z,8.1
2019-05-09T06:47:18.682Z,7.5
2019-05-09T06:48:18.643Z,7.1
2019-05-09T06:49:27.057Z,7.2
2019-05-09T06:50:18.763Z,7.6
2019-05-09T06:51:21.173Z,8
2019-05-09T06:52:18.815Z,7.8
2019-05-09T06:53:18.813Z,7.9
2019-05-09T06:54:18.874Z,7.9
2019-05-09T06:55:18.873Z,7.7
2019-05-09T06:56:18.919Z,7.8
2019-05-09T06:57:18.992Z,7.9
2019-05-09T06:58:19.009Z,7.5
2019-05-09T06:59:19.192Z,7.8
2019-05-09T07:00:20.145Z,7.6
2019-05-09T07:01:19.080Z,7.8
2019-05-09T07:02:19.038Z,7.4
2019-05-09T07:03:19.026Z,7.4
2019-05-09T07:04:19.025Z,7.1
2019-05-09T07:05:19.137Z,7.3
2019-05-09T07:06:19.125Z,6.9
2019-05-09T07:07:19.131Z,6.1
2019-05-09T07:08:19.192Z,6.2
2019-05-09T07:09:19.160Z,6.3
2019-05-09T07:10:20.267Z,6.8
2019-05-09T07:11:19.365Z,7.1
2019-05-09T07:12:19.201Z,6.6
2019-05-09T07:13:19.227Z,6.8
2019-05-09T07:14:28.449Z,6.8
2019-05-09T07:15:19.255Z,6.9
2019-05-09T07:16:19.310Z,7.3
2019-05-09T07:17:19.271Z,7.4
2019-05-09T07:18:19.268Z,7.3
2019-05-09T07:19:19.371Z,6.7
2019-05-09T07:20:19.314Z,6.4
2019-05-09T07:21:20.355Z,6.3
2019-05-09T07:22:19.319Z,6.3
2019-05-09T07:23:19.335Z,7.1
2019-05-09T07:24:19.346Z,6.8
2019-05-09T07:25:19.340Z,7.1
2019-05-09T07:26:19.362Z,6.9
2019-05-09T07:27:19.352Z,7
2019-05-09T07:28:19.547Z,6.9
2019-05-09T07:29:19.363Z,7
2019-05-09T07:30:19.363Z,6.2
2019-05-09T07:31:19.380Z,5.9
2019-05-09T07:32:19.385Z,6.4
2019-05-09T07:33:19.565Z,6.4
2019-05-09T07:34:19.375Z,6.8
2019-05-09T07:35:19.466Z,6.8
2019-05-09T07:36:19.523Z,7.1
2019-05-09T07:37:19.600Z,7.2
2019-05-09T07:38:19.611Z,7
2019-05-09T07:39:19.661Z,7.1
2019-05-09T07:40:19.678Z,6.8
2019-05-09T07:41:19.724Z,6.9
2019-05-09T07:42:19.792Z,6.8
2019-05-09T07:43:19.848Z,6.3
2019-05-09T07:44:19.846Z,6.2
2019-05-09T07:45:19.892Z,6.2
2019-05-09T07:46:19.985Z,6.6
2019-05-09T07:47:19.977Z,6.2
2019-05-09T07:48:20.030Z,6.1
2019-05-09T07:49:20.003Z,6
2019-05-09T07:50:20.101Z,6.3
2019-05-09T07:51:20.161Z,6.6
2019-05-09T07:52:20.226Z,6.8
2019-05-09T07:53:20.239Z,6.9
2019-05-09T07:54:24.947Z,7.3
2019-05-09T07:55:20.373Z,6.7
2019-05-09T07:56:20.396Z,7
2019-05-09T07:57:20.460Z,5.9
2019-05-09T07:58:20.488Z,6.3
2019-05-09T07:59:20.527Z,6.2
2019-05-09T08:00:20.514Z,6
2019-05-09T08:01:20.607Z,5.8
2019-05-09T08:02:20.706Z,6.3
2019-05-09T08:03:20.667Z,6
2019-05-09T08:04:20.740Z,5.6
2019-05-09T08:05:20.726Z,6
2019-05-09T08:06:20.771Z,6
2019-05-09T08:07:20.819Z,5.9
2019-05-09T08:08:20.879Z,5.6
2019-05-09T08:09:20.893Z,5.8
2019-05-09T08:10:20.969Z,5.6
2019-05-09T08:11:20.985Z,6
2019-05-09T08:12:21.057Z,6.1
2019-05-09T08:13:21.386Z,5.7
2019-05-09T08:14:21.236Z,5.9
2019-05-09T08:15:21.184Z,5.7
2019-05-09T08:16:21.241Z,5.8
2019-05-09T08:17:21.358Z,6
2019-05-09T08:18:21.322Z,6.1
2019-05-09T08:19:21.388Z,5.8
2019-05-09T08:20:21.439Z,5.5
2019-05-09T08:21:21.478Z,5.8
2019-05-09T08:22:25.794Z,6.2
2019-05-09T08:23:21.610Z,6.3
2019-05-09T08:24:21.609Z,6.3
2019-05-09T08:25:21.636Z,5.9
2019-05-09T08:26:21.692Z,6.4
2019-05-09T08:27:21.711Z,5.9
2019-05-09T08:28:21.696Z,6.1
2019-05-09T08:29:21.738Z,6.6
2019-05-09T08:30:21.915Z,6.4
2019-05-09T08:31:21.797Z,6.2
2019-05-09T08:32:21.808Z,5.6
2019-05-09T08:33:21.813Z,5.4
2019-05-09T08:34:21.892Z,5.7
2019-05-09T08:35:21.887Z,5.3
2019-05-09T08:36:21.898Z,5.7
2019-05-09T08:37:21.933Z,5.5
2019-05-09T08:38:21.985Z,5.9
2019-05-09T08:39:22.000Z,5.5
2019-05-09T08:40:22.061Z,5.6
2019-05-09T08:41:22.020Z,6
2019-05-09T08:42:22.079Z,6.4
2019-05-09T08:43:22.084Z,5.7
2019-05-09T08:44:22.122Z,5.5
2019-05-09T08:45:27.474Z,5
2019-05-09T08:46:22.128Z,5.3
2019-05-09T08:47:22.165Z,5.4
2019-05-09T08:48:22.177Z,5.1
2019-05-09T08:49:22.218Z,4.8
2019-05-09T08:50:22.312Z,4.7
2019-05-09T08:51:24.735Z,5.4
2019-05-09T08:52:22.310Z,6
2019-05-09T08:53:22.397Z,5.4
2019-05-09T08:54:22.348Z,5.7
2019-05-09T08:55:22.418Z,5.8
2019-05-09T08:56:22.416Z,5.7
2019-05-09T08:57:22.405Z,5.7
2019-05-09T08:58:22.460Z,6.3
2019-05-09T08:59:22.429Z,6.1
2019-05-09T09:00:22.421Z,5.8
2019-05-09T09:01:29.432Z,5.8
2019-05-09T09:02:22.728Z,5.5
2019-05-09T09:03:22.507Z,5.4
2019-05-09T09:04:22.487Z,4.9
2019-05-09T09:05:22.488Z,5.3
2019-05-09T09:06:22.512Z,5.6
2019-05-09T09:07:22.518Z,5.5
2019-05-09T09:08:22.516Z,5.2
2019-05-09T09:09:22.532Z,4.9
2019-05-09T09:10:22.556Z,5.2
2019-05-09T09:11:22.545Z,6
2019-05-09T09:12:30.100Z,5.5
2019-05-09T09:13:22.554Z,6
2019-05-09T09:14:22.550Z,5.6
2019-05-09T09:15:22.551Z,5.4
2019-05-09T09:16:22.767Z,5.7
2019-05-09T09:17:22.578Z,5.7
2019-05-09T09:18:22.572Z,5.5
2019-05-09T09:19:22.660Z,5.6
2019-05-09T09:20:22.586Z,5.4
2019-05-09T09:21:22.634Z,5.5
2019-05-09T09:22:22.633Z,5.8
2019-05-09T09:23:22.685Z,6.2
2019-05-09T09:24:22.736Z,6.8
2019-05-09T09:25:22.809Z,5.6
2019-05-09T09:26:22.850Z,5.8
2019-05-09T09:27:22.839Z,6.4
2019-05-09T09:28:22.918Z,6.7
2019-05-09T09:29:22.963Z,6.6
2019-05-09T09:30:25.438Z,5.8
2019-05-09T09:31:23.100Z,5.4
2019-05-09T09:32:23.220Z,5.6
2019-05-09T09:33:23.152Z,6.4
2019-05-09T09:34:23.159Z,7.1
2019-05-09T09:35:23.203Z,7
2019-05-09T09:36:23.280Z,4.8
2019-05-09T09:37:23.300Z,5.3
2019-05-09T09:38:23.410Z,4.5
2019-05-09T09:39:23.374Z,5.5
2019-05-09T09:40:23.417Z,5.3
2019-05-09T09:41:23.482Z,5.3
2019-05-09T09:42:23.527Z,5.7
2019-05-09T09:43:23.599Z,5.8
2019-05-09T09:44:23.631Z,5
2019-05-09T09:45:23.703Z,5.9
2019-05-09T09:46:23.742Z,4.9
2019-05-09T09:47:23.812Z,5.1
2019-05-09T09:48:23.849Z,5.1
2019-05-09T09:49:24.010Z,5.3
2019-05-09T09:50:23.946Z,5.2
2019-05-09T09:51:24.040Z,5.1
2019-05-09T09:52:24.038Z,5.1
2019-05-09T09:53:24.166Z,5.2
2019-05-09T09:54:24.109Z,5.2
2019-05-09T09:55:24.175Z,5.4
2019-05-09T09:56:24.209Z,4.9
2019-05-09T09:57:24.309Z,5.9
2019-05-09T09:58:24.323Z,5.8
2019-05-09T09:59:24.328Z,5.3
2019-05-09T10:00:24.353Z,5.7
2019-05-09T10:01:24.361Z,5.6
2019-05-09T10:02:27.583Z,6.3
2019-05-09T10:03:24.400Z,5.1
2019-05-09T10:04:28.342Z,5.2
2019-05-09T10:05:24.468Z,4.8
2019-05-09T10:06:24.524Z,4.6
2019-05-09T10:07:24.595Z,5.4
2019-05-09T10:08:24.623Z,5.1
2019-05-09T10:09:24.676Z,5
2019-05-09T10:10:24.703Z,4.6
2019-05-09T10:11:24.737Z,5.8
2019-05-09T10:12:24.801Z,5.7
2019-05-09T10:13:24.840Z,6.2
2019-05-09T10:14:24.935Z,5.7
2019-05-09T10:15:24.904Z,5.6
2019-05-09T10:16:29.281Z,5.9
2019-05-09T10:17:24.978Z,5.7
2019-05-09T10:18:27.458Z,5.3
2019-05-09T10:19:25.054Z,4.1
2019-05-09T10:20:25.088Z,4.8
2019-05-09T10:21:27.485Z,5.6
2019-05-09T10:22:26.273Z,6.4
2019-05-09T10:23:25.202Z,5.4
2019-05-09T10:24:25.228Z,4.8
2019-05-09T10:25:27.454Z,5.1
2019-05-09T10:26:25.287Z,5.1
2019-05-09T10:27:25.307Z,5.5
2019-05-09T10:28:25.320Z,5.2
2019-05-09T10:29:25.353Z,5.1
2019-05-09T10:30:25.388Z,5.2
2019-05-09T10:31:28.042Z,5.5
2019-05-09T10:32:25.413Z,5.4
2019-05-09T10:33:25.407Z,5.4
2019-05-09T10:34:25.503Z,5.3
2019-05-09T10:35:27.724Z,4.6
2019-05-09T10:36:27.635Z,4.1
2019-05-09T10:37:25.509Z,4.4
2019-05-09T10:38:27.721Z,4.6
2019-05-09T10:39:27.635Z,4.8
2019-05-09T10:40:27.924Z,4.8
2019-05-09T10:41:25.612Z,4.5
2019-05-09T10:42:25.616Z,5.5
2019-05-09T10:43:35.336Z,5.3
2019-05-09T10:44:25.668Z,4.9
2019-05-09T10:45:25.725Z,5
2019-05-09T10:46:28.295Z,5.3
2019-05-09T10:47:27.276Z,5.6
2019-05-09T10:48:28.056Z,5.5
2019-05-09T10:49:25.815Z,5.3
2019-05-09T10:50:32.576Z,5.9
2019-05-09T10:51:25.796Z,5.8
2019-05-09T10:52:27.744Z,5.4
2019-05-09T10:53:27.856Z,5
2019-05-09T10:54:27.820Z,5.2
2019-05-09T10:55:28.189Z,4.4
2019-05-09T10:56:27.988Z,4.9
2019-05-09T10:57:30.152Z,5
2019-05-09T10:58:28.196Z,5.3
2019-05-09T10:59:25.953Z,5.6
2019-05-09T11:00:25.969Z,6.1
2019-05-09T11:01:26.072Z,5.7
2019-05-09T11:02:27.893Z,5.6
2019-05-09T11:03:25.999Z,5.6
2019-05-09T11:04:28.522Z,5.4
2019-05-09T11:05:27.711Z,5.7
2019-05-09T11:06:28.348Z,6.1
2019-05-09T11:07:28.615Z,6.2
2019-05-09T11:08:28.369Z,5.4
2019-05-09T11:09:28.981Z,5.9
2019-05-09T11:10:29.924Z,5.2
2019-05-09T11:11:28.124Z,6.2
2019-05-09T11:12:27.551Z,5.7
2019-05-09T11:13:28.406Z,5.6
2019-05-09T11:14:33.382Z,6.6
2019-05-09T11:15:26.113Z,6.1
2019-05-09T11:16:39.358Z,5.8
2019-05-09T11:17:28.295Z,5.2
2019-05-09T11:18:28.397Z,5.7
2019-05-09T11:19:28.535Z,5.8
2019-05-09T11:20:28.356Z,7
2019-05-09T11:21:28.477Z,7.5
2019-05-09T11:22:28.871Z,6.7
2019-05-09T11:23:28.992Z,6
2019-05-09T11:24:40.908Z,5.5
2019-05-09T11:25:27.734Z,5.5
2019-05-09T11:26:28.403Z,5.1
2019-05-09T11:27:28.792Z,5.1
2019-05-09T11:28:28.520Z,4.4
2019-05-09T11:29:28.086Z,4.9
2019-05-09T11:30:28.096Z,4.8
2019-05-09T11:31:29.084Z,5.3
2019-05-09T11:32:27.649Z,5.5
2019-05-09T11:33:27.770Z,5.3
2019-05-09T11:34:27.006Z,5
2019-05-09T11:35:27.058Z,5.2
2019-05-09T11:36:27.109Z,4.8
2019-05-09T11:37:27.133Z,5.1
2019-05-09T11:38:34.054Z,5
2019-05-09T11:39:36.291Z,5
2019-05-09T11:40:28.120Z,4.8
2019-05-09T11:41:29.354Z,5.4
2019-05-09T11:42:28.478Z,5.2
2019-05-09T11:43:29.656Z,5.1
2019-05-09T11:44:27.392Z,5.2
2019-05-09T11:45:28.051Z,4.4
2019-05-09T11:46:28.734Z,3.9
2019-05-09T11:47:36.372Z,4.2
2019-05-09T11:48:28.349Z,4.6
2019-05-09T11:49:29.489Z,4.2
2019-05-09T11:50:30.130Z,4.3
2019-05-09T11:51:28.949Z,4.7
2019-05-09T11:52:28.778Z,3.5
2019-05-09T11:53:28.745Z,4.8
2019-05-09T11:54:28.032Z,5
2019-05-09T11:55:35.119Z,4.3
2019-05-09T11:56:27.896Z,4.8
2019-05-09T11:57:31.203Z,4.9
2019-05-09T11:58:28.114Z,5.2
2019-05-09T11:59:28.224Z,4.7
2019-05-09T12:00:29.368Z,3.9
2019-05-09T12:01:29.171Z,5
2019-05-09T12:02:28.143Z,4.5
2019-05-09T12:03:28.164Z,4.5
2019-05-09T12:04:28.335Z,4.4
2019-05-09T12:05:28.851Z,4.7
2019-05-09T12:06:29.090Z,4.3
2019-05-09T12:07:28.862Z,4.7
2019-05-09T12:08:28.289Z,4
2019-05-09T12:09:28.927Z,4.6
2019-05-09T12:10:28.833Z,4.4
2019-05-09T12:11:28.403Z,4.4
2019-05-09T12:12:28.481Z,4.1
2019-05-09T12:13:28.477Z,4
2019-05-09T12:14:28.501Z,3.8
2019-05-09T12:15:29.142Z,4
2019-05-09T12:16:28.562Z,4.5
2019-05-09T12:17:35.095Z,4.9
2019-05-09T12:18:28.725Z,4.4
2019-05-09T12:19:29.574Z,3.7
2019-05-09T12:20:28.706Z,3.8
2019-05-09T12:21:29.214Z,4.1
2019-05-09T12:22:28.743Z,4.3
2019-05-09T12:23:29.197Z,4.5
2019-05-09T12:24:29.554Z,4.9
2019-05-09T12:25:28.802Z,4.8
2019-05-09T12:26:29.343Z,4.7
2019-05-09T12:27:28.816Z,3.9
2019-05-09T12:28:28.837Z,4.1
2019-05-09T12:29:28.911Z,4.5
2019-05-09T12:30:28.875Z,4.6
2019-05-09T12:31:31.342Z,4.2
2019-05-09T12:32:28.974Z,5.3
2019-05-09T12:33:32.938Z,5.3
2019-05-09T12:34:29.114Z,4.5
2019-05-09T12:35:29.086Z,4.3
2019-05-09T12:36:29.126Z,4.9
2019-05-09T12:37:29.090Z,5
2019-05-09T12:38:29.212Z,4.5
2019-05-09T12:39:29.164Z,4.8
2019-05-09T12:40:29.221Z,4.4
2019-05-09T12:41:31.329Z,4.1
2019-05-09T12:42:29.593Z,4.9
2019-05-09T12:43:29.267Z,5.4
2019-05-09T12:44:29.305Z,5.6
2019-05-09T12:45:29.305Z,5.9
2019-05-09T12:46:29.355Z,4.6
2019-05-09T12:47:29.403Z,4
2019-05-09T12:48:29.457Z,4.1
2019-05-09T12:49:29.494Z,5.1
2019-05-09T12:50:29.582Z,4.8
2019-05-09T12:51:29.458Z,4.3
2019-05-09T12:52:29.470Z,3.7
2019-05-09T12:53:29.506Z,3.7
2019-05-09T12:54:29.470Z,3.9
2019-05-09T12:55:29.501Z,5.5
2019-05-09T12:56:29.513Z,4.9
2019-05-09T12:57:29.611Z,5.2
2019-05-09T12:58:29.565Z,4.7
2019-05-09T12:59:44.425Z,4.4
2019-05-09T13:00:29.687Z,3.6
2019-05-09T13:01:29.603Z,4
2019-05-09T13:02:29.633Z,4.1
2019-05-09T13:03:29.641Z,3.9
2019-05-09T13:04:29.636Z,3.8
2019-05-09T13:05:29.662Z,3.2
2019-05-09T13:06:29.922Z,2.7
2019-05-09T13:07:29.939Z,2.8
2019-05-09T13:08:29.678Z,2.7
2019-05-09T13:09:29.672Z,3.1
2019-05-09T13:10:29.713Z,3
2019-05-09T13:11:29.677Z,3.8
2019-05-09T13:12:29.681Z,3
2019-05-09T13:13:32.153Z,3.2
2019-05-09T13:14:29.702Z,4
2019-05-09T13:15:30.973Z,3.9
2019-05-09T13:16:43.821Z,4.3
2019-05-09T13:17:29.732Z,4.7
2019-05-09T13:18:29.848Z,6
2019-05-09T13:19:29.862Z,5.2
2019-05-09T13:20:29.844Z,4.9
2019-05-09T13:21:32.713Z,4.3
2019-05-09T13:22:29.948Z,4.4
2019-05-09T13:23:30.485Z,3.8
2019-05-09T13:24:30.088Z,4
2019-05-09T13:25:30.242Z,3.6
2019-05-09T13:26:30.159Z,4.1
2019-05-09T13:27:30.249Z,4
2019-05-09T13:28:30.295Z,3.7
2019-05-09T13:29:30.360Z,3.9
2019-05-09T13:30:30.498Z,3.7
2019-05-09T13:31:30.423Z,3.8
2019-05-09T13:32:30.435Z,4
2019-05-09T13:33:30.461Z,3.7
2019-05-09T13:34:30.598Z,3.8
2019-05-09T13:35:30.600Z,3.5
2019-05-09T13:36:30.598Z,3.6
2019-05-09T13:37:30.753Z,4
2019-05-09T13:38:30.707Z,4.3
2019-05-09T13:39:30.770Z,5.3
2019-05-09T13:40:30.840Z,4.3
2019-05-09T13:41:30.861Z,4.4
2019-05-09T13:42:30.876Z,4.9
2019-05-09T13:43:30.924Z,4.6
2019-05-09T13:44:30.950Z,4.9
2019-05-09T13:45:30.963Z,4.7
2019-05-09T13:46:31.049Z,4.3
2019-05-09T13:47:31.031Z,4.1
2019-05-09T13:48:55.196Z,4.3
2019-05-09T13:49:31.027Z,3.8
2019-05-09T13:50:31.104Z,4.5